Time;durP1;ratioP1;P1;durP2;ratioP2;P2;SDS_P1;SDS_P2;PMS_P1;PMS_P2;Temp;Humidity;BMP_temperature;BMP_pressure;BME280_temperature;BME280_humidity;BME280_pressure;Samples;Min_cycle;Max_cycle;Signal;HPM_P1;HPM_P2
2022/01/02 00:00:08;;;;;;;5.68;5.00;;;;;;;8.66;71.08;97035.41;5115937;28;20024;-68
2022/01/02 00:02:35;;;;;;;5.40;4.72;;;;;;;8.52;71.46;97035.66;5115908;28;20035;-66
2022/01/02 00:05:09;;;;;;;5.28;4.55;;;;;;;8.54;71.56;97041.75;5115908;28;20023;-62
2022/01/02 00:07:46;;;;;;;6.97;5.38;;;;;;;8.50;71.53;97032.25;5115767;28;20050;-64
2022/01/02 00:10:13;;;;;;;7.78;4.72;;;;;;;8.44;71.58;97028.03;5115796;28;20028;-68
2022/01/02 00:12:43;;;;;;;4.88;4.20;;;;;;;8.43;71.78;97039.31;5115589;28;20031;-70
2022/01/02 00:15:11;;;;;;;;;;;;;;;8.43;71.54;97039.31;5116186;28;20024;-66
2022/01/02 00:17:38;;;;;;;5.05;3.83;;;;;;;8.28;71.68;97037.06;5115484;28;19916;-65
2022/01/02 00:20:11;;;;;;;4.82;4.20;;;;;;;8.25;71.99;97039.72;5115648;27;20359;-67
2022/01/02 00:22:40;;;;;;;5.80;4.35;;;;;;;8.23;72.34;97050.19;5115553;28;20114;-64
2022/01/02 00:25:13;;;;;;;4.75;4.28;;;;;;;8.21;72.04;97044.13;5115235;27;20043;-66
2022/01/02 00:27:40;;;;;;;38.03;18.95;;;;;;;8.08;71.26;97041.78;5115451;28;20031;-65
2022/01/02 00:30:07;;;;;;;56.42;26.23;;;;;;;7.86;70.93;97048.31;5115464;28;20024;-68
2022/01/02 00:32:33;;;;;;;18.40;10.45;;;;;;;7.78;72.02;97051.91;5115239;28;20484;-66
2022/01/02 00:35:00;;;;;;;8.10;5.57;;;;;;;7.64;71.78;97059.97;5115168;28;20027;-65
2022/01/02 00:37:26;;;;;;;10.35;5.18;;;;;;;7.42;71.00;97054.28;5115007;28;20028;-65
2022/01/02 00:39:52;;;;;;;4.30;3.90;;;;;;;7.30;72.61;97052.75;5115170;28;20026;-64
2022/01/02 00:42:28;;;;;;;6.32;4.90;;;;;;;7.18;74.82;97049.47;5115004;28;20031;-63
2022/01/02 00:44:59;;;;;;;4.80;4.07;;;;;;;7.19;74.16;97058.13;5114081;28;20382;-67
2022/01/02 00:47:30;;;;;;;5.68;4.25;;;;;;;7.18;74.31;97056.41;5114957;28;20106;-66
2022/01/02 00:50:05;;;;;;;4.50;3.53;;;;;;;7.23;74.22;97059.81;5114858;28;20497;-63
2022/01/02 00:52:35;;;;;;;4.82;4.22;;;;;;;7.19;74.28;97061.59;5114896;28;20111;-65
2022/01/02 00:55:03;;;;;;;3.50;3.13;;;;;;;7.23;74.51;97067.63;5114947;28;20051;-66
2022/01/02 00:57:35;;;;;;;4.72;4.00;;;;;;;7.22;74.04;97071.06;5114667;28;20055;-68
2022/01/02 01:00:10;;;;;;;6.72;4.20;;;;;;;7.21;75.29;97064.16;5114674;28;20492;-69
2022/01/02 01:02:50;;;;;;;4.90;4.40;;;;;;;7.14;75.63;97063.41;5114699;28;20015;-66
2022/01/02 01:05:23;;;;;;;4.82;4.03;;;;;;;7.24;75.95;97066.72;5114792;28;20071;-67
2022/01/02 01:07:52;;;;;;;5.10;4.50;;;;;;;7.36;75.65;97070.88;5114640;28;20104;-68
2022/01/02 01:10:19;;;;;;;4.25;3.85;;;;;;;7.45;75.60;97062.03;5114457;28;20133;-65
2022/01/02 01:12:49;;;;;;;4.40;4.00;;;;;;;7.53;75.24;97065.34;5114504;28;20023;-67
2022/01/02 01:15:15;;;;;;;4.30;3.10;;;;;;;7.59;75.08;97057.44;5114505;28;20056;-67
2022/01/02 01:17:40;;;;;;;5.43;3.88;;;;;;;7.68;75.03;97052.97;5114415;28;20027;-65
2022/01/02 01:20:09;;;;;;;4.03;3.63;;;;;;;7.66;74.68;97068.63;5114412;28;20135;-66
2022/01/02 01:22:35;;;;;;;5.85;3.53;;;;;;;7.71;73.93;97069.38;5114295;28;20016;-68
2022/01/02 01:25:01;;;;;;;4.47;3.65;;;;;;;7.75;73.71;97058.91;5114042;28;20071;-64
2022/01/02 01:27:27;;;;;;;4.38;3.97;;;;;;;7.75;73.40;97066.72;5114172;28;20114;-68
2022/01/02 01:29:53;;;;;;;4.13;3.72;;;;;;;7.70;73.23;97061.59;5114302;28;20027;-69
2022/01/02 01:32:18;;;;;;;4.10;3.55;;;;;;;7.73;73.05;97071.13;5114170;28;20024;-65
2022/01/02 01:34:44;;;;;;;3.83;3.30;;;;;;;7.68;72.83;97064.22;5114042;28;20103;-64
2022/01/02 01:37:09;;;;;;;4.05;3.65;;;;;;;7.65;73.12;97064.28;5114050;28;20114;-69
2022/01/02 01:39:35;;;;;;;3.67;3.30;;;;;;;7.59;73.17;97060.03;5114082;28;20420;-65
2022/01/02 01:42:08;;;;;;;3.58;3.28;;;;;;;7.58;72.63;97055.72;5113944;28;20054;-68
2022/01/02 01:47:12;;;;;;;3.83;3.22;;;;;;;7.44;73.06;97062.94;5114042;28;20047;-67
2022/01/02 01:49:38;;;;;;;3.97;3.10;;;;;;;7.42;74.90;97056.88;5113748;28;20437;-68
2022/01/02 01:52:03;;;;;;;3.85;2.88;;;;;;;7.46;75.07;97045.53;5114005;28;20028;-67
2022/01/02 01:54:29;;;;;;;3.72;3.33;;;;;;;7.59;75.56;97046.19;5113663;28;20031;-67
2022/01/02 01:56:55;;;;;;;4.95;3.17;;;;;;;7.68;75.70;97045.16;5113621;28;20024;-65
2022/01/02 01:59:21;;;;;;;3.65;3.30;;;;;;;7.75;75.23;97051.97;5113701;28;20026;-66
2022/01/02 02:01:47;;;;;;;4.10;3.55;;;;;;;7.82;75.06;97045.75;5113669;28;20458;-64
2022/01/02 02:04:14;;;;;;;4.30;3.30;;;;;;;7.99;74.39;97052.38;5113710;28;20031;-66
2022/01/02 02:06:40;;;;;;;3.53;3.22;;;;;;;8.07;74.49;97055.69;5113695;28;20046;-67
2022/01/02 02:09:07;;;;;;;3.45;2.97;;;;;;;8.14;74.09;97045.16;5113678;28;20059;-66
2022/01/02 02:11:36;;;;;;;3.25;2.95;;;;;;;8.23;73.89;97052.78;5113497;28;20385;-70
2022/01/02 02:14:04;;;;;;;3.33;3.03;;;;;;;8.25;73.68;97043.16;5113462;28;20023;-69
2022/01/02 02:16:31;;;;;;;3.50;2.72;;;;;;;8.32;73.22;97057.81;5113505;28;20123;-65
2022/01/02 02:18:57;;;;;;;5.03;3.45;;;;;;;8.41;73.08;97053.28;5113619;28;20028;-69
2022/01/02 02:21:31;;;;;;;2.92;2.55;;;;;;;8.44;72.78;97050.63;5113590;28;20483;-69
2022/01/02 02:23:56;;;;;;;3.15;2.85;;;;;;;8.47;72.45;97054.03;5113224;28;20061;-68
2022/01/02 02:26:22;;;;;;;3.20;2.90;;;;;;;8.47;72.63;97050.56;5113432;28;20366;-64
2022/01/02 02:28:47;;;;;;;3.83;3.50;;;;;;;8.50;72.22;97055.72;5113550;28;20030;-67
2022/01/02 02:31:13;;;;;;;3.10;2.80;;;;;;;8.46;72.53;97060.13;5113572;28;20037;-67
2022/01/02 02:33:38;;;;;;;3.10;2.80;;;;;;;8.48;72.39;97067.91;5113400;28;20051;-69
2022/01/02 02:36:04;;;;;;;3.40;3.10;;;;;;;8.51;72.13;97067.84;5113291;28;20042;-67
2022/01/02 02:38:32;;;;;;;3.95;2.95;;;;;;;8.57;72.03;97072.09;5113201;28;20036;-64
2022/01/02 02:40:57;;;;;;;3.60;2.80;;;;;;;8.55;72.06;97064.31;5113246;28;20537;-67
2022/01/02 02:43:44;;;;;;;3.00;2.70;;;;;;;8.61;71.68;97067.69;5113238;28;20106;-64
2022/01/02 02:53:58;;;;;;;3.08;2.78;;;;;;;8.59;71.37;97062.50;5113163;28;20058;-69
2022/01/02 02:56:29;;;;;;;5.07;3.22;;;;;;;8.61;71.33;97067.69;5113227;28;20055;-64
2022/01/02 02:58:57;;;;;;;4.38;3.05;;;;;;;8.69;71.01;97066.63;5113153;28;20028;-69
2022/01/02 03:01:28;;;;;;;2.90;2.60;;;;;;;8.76;70.55;97071.72;5113139;28;20016;-63
2022/01/02 03:03:54;;;;;;;3.30;3.00;;;;;;;8.77;70.57;97073.41;5112997;28;20071;-65
2022/01/02 03:06:20;;;;;;;2.83;2.63;;;;;;;8.77;70.66;97073.41;5113130;28;20027;-66
2022/01/02 03:08:47;;;;;;;3.17;2.70;;;;;;;8.78;70.38;97078.59;5117089;28;20020;-67
2022/01/02 03:11:16;;;;;;;3.03;2.83;;;;;;;8.79;70.37;97063.81;5116970;28;20024;-68
2022/01/02 03:13:43;;;;;;;4.53;3.00;;;;;;;8.80;70.20;97063.78;5116847;28;20027;-63
2022/01/02 03:16:09;;;;;;;3.45;3.05;;;;;;;8.78;70.28;97068.16;5116688;28;20372;-69
2022/01/02 03:18:35;;;;;;;5.15;2.92;;;;;;;8.80;70.30;97082.06;5116783;28;20419;-67
2022/01/02 03:21:02;;;;;;;2.70;2.45;;;;;;;8.78;70.21;97081.22;5116739;28;20051;-67
2022/01/02 03:23:27;;;;;;;4.68;2.75;;;;;;;8.78;70.24;97082.97;5116509;28;20076;-68
2022/01/02 03:25:53;;;;;;;3.10;2.78;;;;;;;8.75;70.24;97091.72;5116548;28;20047;-69
2022/01/02 03:28:18;;;;;;;4.68;3.25;;;;;;;8.74;70.17;97095.22;5116608;28;20019;-68
2022/01/02 03:30:44;;;;;;;3.72;3.08;;;;;;;8.64;70.23;97098.94;5116524;28;20024;-65
2022/01/02 03:33:10;;;;;;;4.47;3.50;;;;;;;8.63;70.69;97097.19;5116509;28;20019;-62
2022/01/02 03:35:35;;;;;;;5.28;3.30;;;;;;;8.62;70.72;97100.69;5116394;28;20147;-69
2022/01/02 03:38:02;;;;;;;4.22;3.15;;;;;;;8.61;70.55;97105.03;5116391;28;20073;-70
2022/01/02 03:40:28;;;;;;;3.60;3.15;;;;;;;8.59;70.77;97104.22;5116278;28;20038;-65
2022/01/02 03:42:54;;;;;;;3.50;2.92;;;;;;;8.59;70.55;97094.66;5116424;28;20465;-68
2022/01/02 03:45:19;;;;;;;5.45;3.25;;;;;;;8.52;70.82;97098.25;5116217;28;20350;-65
2022/01/02 03:47:45;;;;;;;4.50;3.15;;;;;;;8.46;70.73;97094.03;5116153;28;20032;-66
2022/01/02 03:50:12;;;;;;;4.70;3.20;;;;;;;8.41;71.02;97095.88;5116098;28;20031;-66
2022/01/02 03:52:37;;;;;;;3.15;2.83;;;;;;;8.32;71.48;97096.06;5115957;27;20031;-69
2022/01/02 03:55:04;;;;;;;3.45;3.10;;;;;;;8.26;71.70;97098.78;5115986;28;20015;-69
2022/01/02 03:57:30;;;;;;;4.43;3.10;;;;;;;8.26;71.67;97099.66;5115852;28;20019;-66
2022/01/02 03:59:55;;;;;;;4.32;3.33;;;;;;;8.18;71.87;97102.41;5116132;28;20015;-67
2022/01/02 04:02:21;;;;;;;3.45;3.15;;;;;;;8.25;71.69;97107.50;5115934;28;20054;-63
2022/01/02 04:04:47;;;;;;;4.93;3.35;;;;;;;8.26;71.88;97104.88;5115895;28;20023;-65
2022/01/02 04:07:13;;;;;;;3.72;3.40;;;;;;;8.28;71.56;97104.84;5115807;28;20020;-68
2022/01/02 04:09:38;;;;;;;4.10;3.65;;;;;;;8.25;71.95;97110.09;5115869;28;20024;-67
2022/01/02 04:12:05;;;;;;;5.65;3.55;;;;;;;8.31;71.77;97116.03;5116007;28;20022;-69
2022/01/02 04:14:30;;;;;;;4.82;3.53;;;;;;;8.27;71.67;97117.00;5115582;28;20098;-66
2022/01/02 04:16:56;;;;;;;3.92;3.42;;;;;;;8.30;71.43;97124.75;5115596;27;20058;-64
2022/01/02 04:19:21;;;;;;;3.97;3.00;;;;;;;8.25;71.39;97126.59;5115575;28;20019;-68
2022/01/02 04:21:47;;;;;;;5.15;3.72;;;;;;;8.13;71.35;97126.84;5115615;28;20015;-65
2022/01/02 04:24:12;;;;;;;3.90;3.50;;;;;;;8.04;71.45;97138.28;5115297;28;20044;-67
2022/01/02 04:26:38;;;;;;;4.30;3.40;;;;;;;7.94;71.65;97141.06;5115478;28;20052;-66
2022/01/02 04:29:05;;;;;;;5.93;4.20;;;;;;;7.80;71.83;97132.63;5115343;28;20024;-65
2022/01/02 04:31:31;;;;;;;4.13;3.72;;;;;;;7.75;71.95;97139.66;5115355;28;20055;-69
2022/01/02 04:33:56;;;;;;;4.63;3.67;;;;;;;7.52;72.25;97133.06;5115467;28;20516;-66
2022/01/02 04:36:22;;;;;;;6.18;3.28;;;;;;;7.48;71.79;97144.44;5115447;28;20471;-66
2022/01/02 04:38:47;;;;;;;4.65;3.03;;;;;;;7.38;71.48;97144.59;5115106;28;20035;-69
2022/01/02 04:41:13;;;;;;;4.32;3.47;;;;;;;7.25;71.65;97143.91;5115111;28;20023;-69
2022/01/02 04:43:38;;;;;;;4.38;3.70;;;;;;;7.14;72.01;97143.22;5115041;28;20031;-65
2022/01/02 04:46:05;;;;;;;3.80;3.40;;;;;;;7.08;72.46;97157.19;5115018;28;20490;-65
2022/01/02 04:48:31;;;;;;;4.07;3.40;;;;;;;7.02;72.70;97142.53;5115008;28;20470;-65
2022/01/02 04:50:57;;;;;;;4.60;3.65;;;;;;;6.92;72.54;97154.78;5114971;28;20031;-68
2022/01/02 04:53:22;;;;;;;3.83;3.40;;;;;;;6.88;73.78;97162.63;5114994;28;20035;-65
2022/01/02 04:55:49;;;;;;;5.97;3.92;;;;;;;6.82;74.01;97156.66;5114839;28;20030;-66
2022/01/02 04:58:15;;;;;;;4.13;3.72;;;;;;;6.74;73.67;97155.88;5114699;28;20019;-66
2022/01/02 05:00:41;;;;;;;7.93;5.07;;;;;;;6.68;74.14;97166.34;5114798;28;20043;-65
2022/01/02 05:03:06;;;;;;;6.30;4.68;;;;;;;6.64;74.34;97170.75;5114765;28;20063;-65
2022/01/02 05:05:32;;;;;;;6.70;5.00;;;;;;;6.67;75.50;97172.44;5114792;28;20487;-68
2022/01/02 05:07:58;;;;;;;6.47;4.72;;;;;;;6.59;75.03;97177.72;5114761;28;20081;-66
2022/01/02 05:10:23;;;;;;;5.43;4.13;;;;;;;6.61;74.80;97172.50;5114607;28;20116;-68
2022/01/02 05:12:49;;;;;;;6.53;4.50;;;;;;;6.52;75.65;97179.53;5114591;28;20020;-62
2022/01/02 05:15:15;;;;;;;4.97;3.97;;;;;;;6.52;76.09;97182.16;5114503;28;20073;-68
2022/01/02 05:17:40;;;;;;;4.32;3.92;;;;;;;6.59;75.99;97182.06;5114311;28;20380;-68
2022/01/02 05:20:06;;;;;;;6.07;4.00;;;;;;;6.60;75.33;97182.06;5114344;28;20031;-68
2022/01/02 05:22:32;;;;;;;3.97;3.50;;;;;;;6.52;76.09;97182.16;5114424;28;20034;-63
2022/01/02 05:24:58;;;;;;;4.95;3.95;;;;;;;6.59;76.75;97182.91;5114096;28;20127;-67
2022/01/02 05:27:23;;;;;;;5.68;4.63;;;;;;;6.65;76.03;97182.00;5114268;28;20027;-61
2022/01/02 05:29:49;;;;;;;6.05;5.45;;;;;;;6.65;76.01;97184.59;5113722;28;20027;-64
2022/01/02 05:32:14;;;;;;;7.97;5.80;;;;;;;6.66;76.30;97183.72;5114165;28;20016;-65
2022/01/02 05:34:40;;;;;;;4.93;4.32;;;;;;;6.70;76.21;97193.19;5114125;28;20024;-66
2022/01/02 05:37:06;;;;;;;6.32;3.63;;;;;;;6.67;76.33;97182.84;5114153;28;20043;-63
2022/01/02 05:39:32;;;;;;;6.32;5.07;;;;;;;6.67;76.42;97180.22;5114174;28;20098;-67
2022/01/02 05:41:57;;;;;;;7.50;3.45;;;;;;;6.65;76.25;97176.81;5113958;28;20076;-67
2022/01/02 05:44:23;;;;;;;4.40;4.00;;;;;;;6.63;76.41;97175.97;5113986;28;20093;-64
2022/01/02 05:46:49;;;;;;;5.88;5.28;;;;;;;6.57;76.35;97179.50;5113960;27;20023;-64
2022/01/02 05:49:15;;;;;;;11.48;4.45;;;;;;;6.39;76.07;97171.03;5113946;28;20424;-63
2022/01/02 05:51:41;;;;;;;4.40;3.83;;;;;;;6.37;77.16;97182.31;5113834;28;20016;-66
2022/01/02 05:54:07;;;;;;;9.10;4.63;;;;;;;6.36;76.96;97173.66;5113881;28;20019;-64
2022/01/02 05:56:33;;;;;;;10.80;5.78;;;;;;;6.33;77.04;97181.50;5113784;28;20373;-68
2022/01/02 05:58:59;;;;;;;5.93;4.70;;;;;;;6.33;77.18;97173.69;5113672;28;20032;-62
2022/01/02 06:01:25;;;;;;;4.00;3.60;;;;;;;6.38;77.33;97187.47;5113891;28;20521;-68
2022/01/02 06:03:51;;;;;;;13.73;3.72;;;;;;;6.28;76.08;97189.34;5113816;28;20024;-65
2022/01/02 06:06:17;;;;;;;3.30;3.00;;;;;;;6.24;75.48;97189.38;5113572;28;20028;-63
2022/01/02 06:08:42;;;;;;;3.13;2.83;;;;;;;6.16;74.45;97190.31;5113700;28;20023;-62
2022/01/02 06:11:08;;;;;;;3.20;2.90;;;;;;;6.10;74.76;97194.69;5113756;28;20016;-66
2022/01/02 06:13:34;;;;;;;3.40;3.10;;;;;;;6.09;74.39;97201.66;5113819;28;20019;-65
2022/01/02 06:15:59;;;;;;;3.40;3.00;;;;;;;5.99;74.39;97203.41;5113693;28;20377;-64
2022/01/02 06:18:25;;;;;;;5.22;3.78;;;;;;;5.92;74.20;97206.94;5113484;28;20066;-65
2022/01/02 06:20:50;;;;;;;3.67;3.35;;;;;;;5.72;74.18;97201.94;5113507;28;20022;-67
2022/01/02 06:23:16;;;;;;;6.57;4.90;;;;;;;5.60;74.85;97208.94;5113512;28;20019;-67
2022/01/02 06:25:45;;;;;;;4.70;3.88;;;;;;;5.68;74.72;97211.47;5113420;28;20050;-63
2022/01/02 06:28:12;;;;;;;5.35;4.32;;;;;;;6.12;76.24;97212.00;5113490;28;20027;-65
2022/01/02 06:30:38;;;;;;;15.38;7.57;;;;;;;7.68;71.24;97220.47;5113466;28;20028;-67
2022/01/02 06:33:04;;;;;;;4.22;3.10;;;;;;;9.34;64.30;97222.69;5113377;28;20138;-66
2022/01/02 06:35:34;;;;;;;4.80;2.75;;;;;;;11.07;60.00;97234.06;5113344;28;20031;-62
2022/01/02 06:38:20;;;;;;;2.78;2.38;;;;;;;12.69;55.16;97237.72;5113292;28;20039;-67
2022/01/02 06:40:48;;;;;;;3.90;2.55;;;;;;;14.39;50.93;97237.34;5112724;28;20401;-63
2022/01/02 06:43:15;;;;;;;2.70;2.20;;;;;;;15.75;47.27;97252.44;5116619;28;20538;-67
2022/01/02 06:45:42;;;;;;;2.67;2.17;;;;;;;16.87;43.92;97245.22;5117434;28;20484;-67
2022/01/02 06:48:07;;;;;;;4.57;1.85;;;;;;;17.98;42.01;97249.88;5117393;28;20027;-64
2022/01/02 06:50:33;;;;;;;2.08;1.88;;;;;;;18.89;38.53;97253.47;5117405;28;20024;-65
2022/01/02 06:52:59;;;;;;;1.70;1.52;;;;;;;19.80;37.85;97257.59;5117376;28;20020;-68
2022/01/02 06:55:25;;;;;;;3.17;1.67;;;;;;;20.58;35.88;97255.22;5117224;28;20016;-67
2022/01/02 06:57:51;;;;;;;3.05;1.20;;;;;;;21.20;34.50;97257.31;5117066;28;20027;-63
2022/01/02 07:00:17;;;;;;;1.50;1.40;;;;;;;21.68;33.94;97263.72;5117118;28;20115;-66
2022/01/02 07:02:43;;;;;;;1.80;1.70;;;;;;;22.41;33.34;97260.22;5117219;28;20103;-69
2022/01/02 07:05:09;;;;;;;3.90;2.00;;;;;;;23.21;32.45;97263.94;5117067;27;20462;-69
2022/01/02 07:07:43;;;;;;;2.88;2.38;;;;;;;23.83;31.56;97258.22;5116897;28;20020;-66
2022/01/02 07:10:10;;;;;;;2.08;1.65;;;;;;;24.71;30.47;97259.97;5116989;28;20028;-68
2022/01/02 07:12:36;;;;;;;2.00;1.80;;;;;;;25.16;29.74;97260.69;5116887;28;20080;-68
2022/01/02 07:15:03;;;;;;;1.73;1.58;;;;;;;25.40;28.57;97258.69;5116831;27;20020;-66
2022/01/02 07:17:29;;;;;;;1.65;1.55;;;;;;;25.49;28.40;97256.03;5116683;27;20114;-67
2022/01/02 07:19:55;;;;;;;1.33;1.23;;;;;;;25.72;27.58;97257.69;5116723;28;20066;-62
2022/01/02 07:22:21;;;;;;;1.60;1.50;;;;;;;25.60;28.11;97256.94;5116736;28;20550;-66
2022/01/02 07:24:51;;;;;;;4.38;1.83;;;;;;;25.57;28.19;97260.72;5116445;28;20047;-64
2022/01/02 07:27:20;;;;;;;3.30;2.17;;;;;;;25.03;29.07;97249.34;5116682;28;20416;-67
2022/01/02 07:29:48;;;;;;;3.00;1.85;;;;;;;25.11;28.86;97249.56;5116759;28;20066;-69
2022/01/02 07:32:15;;;;;;;1.77;1.67;;;;;;;24.55;29.39;97262.25;5116535;28;20020;-66
2022/01/02 07:34:42;;;;;;;2.42;1.88;;;;;;;24.12;30.25;97254.16;5116413;28;20032;-68
2022/01/02 07:37:12;;;;;;;2.17;2.03;;;;;;;24.26;30.23;97261.03;5116417;28;20028;-65
2022/01/02 07:39:38;;;;;;;2.33;2.00;;;;;;;24.19;29.93;97263.38;5116426;28;20030;-67
2022/01/02 07:42:04;;;;;;;2.58;2.38;;;;;;;24.92;29.09;97259.16;5116448;28;20023;-64
2022/01/02 07:44:29;;;;;;;2.33;1.80;;;;;;;23.83;30.26;97262.72;5116278;28;20481;-67
2022/01/02 07:46:55;;;;;;;2.83;1.92;;;;;;;24.01;30.34;97271.06;5116234;28;20022;-66
2022/01/02 07:49:21;;;;;;;2.20;2.00;;;;;;;24.81;29.24;97264.56;5116149;28;20109;-68
2022/01/02 07:51:46;;;;;;;2.75;2.00;;;;;;;25.46;28.33;97261.66;5116208;28;20024;-67
2022/01/02 07:54:13;;;;;;;2.58;2.03;;;;;;;25.64;27.96;97265.56;5115726;28;20023;-69
2022/01/02 07:56:40;;;;;;;3.38;2.08;;;;;;;26.81;26.38;97272.03;5115990;28;20031;-67
2022/01/02 07:59:06;;;;;;;2.10;1.90;;;;;;;26.39;26.45;97267.81;5115895;28;20098;-67
2022/01/02 08:01:31;;;;;;;1.88;1.65;;;;;;;26.43;26.97;97281.81;5115884;28;20577;-64
2022/01/02 08:03:57;;;;;;;2.10;1.90;;;;;;;27.05;25.44;97272.56;5115908;28;20041;-67
2022/01/02 08:06:23;;;;;;;2.35;1.98;;;;;;;25.63;27.54;97272.75;5115747;28;20016;-66
2022/01/02 08:08:49;;;;;;;1.77;1.50;;;;;;;26.48;26.58;97272.34;5115771;27;20016;-65
2022/01/02 08:11:16;;;;;;;4.90;2.00;;;;;;;27.23;25.51;97268.16;5115673;28;20098;-64
2022/01/02 08:13:46;;;;;;;1.83;1.73;;;;;;;27.50;25.29;97266.50;5115960;28;20100;-67
2022/01/02 08:16:12;;;;;;;1.70;1.60;;;;;;;26.52;25.86;97258.66;5115742;28;20030;-68
2022/01/02 08:18:39;;;;;;;2.13;1.65;;;;;;;27.12;25.66;97266.47;5115444;28;20054;-65
2022/01/02 08:21:05;;;;;;;1.88;1.70;;;;;;;27.18;25.95;97273.09;5115650;28;20485;-68
2022/01/02 08:23:31;;;;;;;2.15;1.70;;;;;;;25.92;27.30;97260.41;5115449;28;20040;-64
2022/01/02 08:25:57;;;;;;;1.60;1.50;;;;;;;25.34;28.34;97271.63;5115222;28;20051;-68
2022/01/02 08:28:26;;;;;;;5.47;2.00;;;;;;;26.20;27.58;97276.66;5115407;28;20378;-70
2022/01/02 08:30:52;;;;;;;3.23;2.73;;;;;;;26.97;26.12;97273.28;5115539;28;20024;-66
2022/01/02 08:33:18;;;;;;;1.98;1.77;;;;;;;25.76;27.29;97280.53;5115408;28;20084;-68
2022/01/02 08:35:45;;;;;;;2.08;1.88;;;;;;;25.17;28.43;97275.78;5115303;28;20052;-67
2022/01/02 08:38:12;;;;;;;2.03;1.77;;;;;;;25.71;27.85;97280.94;5115063;28;20363;-68
2022/01/02 08:40:39;;;;;;;2.53;1.77;;;;;;;26.57;26.74;97278.69;5115232;28;20030;-67
2022/01/02 08:43:06;;;;;;;1.80;1.70;;;;;;;25.73;26.82;97275.44;5115266;28;20012;-62
2022/01/02 08:45:33;;;;;;;4.45;2.10;;;;;;;25.97;26.63;97276.91;5114996;28;20054;-66
2022/01/02 08:47:59;;;;;;;2.63;1.80;;;;;;;25.01;28.59;97276.25;5115004;28;20115;-65
2022/01/02 08:50:25;;;;;;;2.10;1.90;;;;;;;24.79;28.65;97278.06;5114899;28;20073;-68
2022/01/02 08:52:51;;;;;;;1.48;1.38;;;;;;;23.98;29.45;97280.16;5114965;28;20035;-63
2022/01/02 08:55:16;;;;;;;1.58;1.40;;;;;;;22.89;31.52;97272.66;5114847;28;20080;-64
2022/01/02 08:57:42;;;;;;;2.03;1.80;;;;;;;22.29;32.86;97272.66;5114706;28;20031;-65
2022/01/02 09:00:09;;;;;;;1.80;1.42;;;;;;;22.22;32.37;97275.78;5114756;28;20167;-65
2022/01/02 09:02:35;;;;;;;2.05;1.77;;;;;;;21.61;33.58;97279.25;5114548;28;20030;-66
2022/01/02 09:05:01;;;;;;;2.70;1.65;;;;;;;21.30;33.15;97270.78;5113850;28;20425;-67
2022/01/02 09:07:26;;;;;;;2.05;1.60;;;;;;;21.14;32.95;97265.72;5114721;28;20034;-61
2022/01/02 09:09:52;;;;;;;1.40;1.30;;;;;;;20.93;33.10;97261.78;5114801;28;20469;-64
2022/01/02 09:12:18;;;;;;;1.40;1.30;;;;;;;20.21;35.39;97268.31;5114595;28;20030;-66
2022/01/02 09:14:44;;;;;;;1.35;1.25;;;;;;;19.22;37.01;97267.44;5114461;28;20030;-68
2022/01/02 09:17:10;;;;;;;1.52;1.40;;;;;;;18.48;38.34;97269.09;5114333;28;20092;-67
2022/01/02 09:19:36;;;;;;;1.60;1.30;;;;;;;18.18;37.92;97251.41;5114527;28;20469;-68
2022/01/02 09:22:01;;;;;;;1.60;1.45;;;;;;;17.82;38.73;97256.03;5113222;28;20068;-63
2022/01/02 09:24:28;;;;;;;1.38;1.27;;;;;;;17.40;40.40;97255.69;5114225;28;20051;-65
2022/01/02 09:26:54;;;;;;;1.40;1.30;;;;;;;16.92;40.44;97253.78;5114339;28;20027;-61
2022/01/02 09:29:19;;;;;;;1.35;1.25;;;;;;;16.66;40.80;97253.34;5114155;28;20027;-64
2022/01/02 09:31:45;;;;;;;1.33;1.10;;;;;;;16.62;42.04;97246.50;5114120;28;20031;-66
2022/01/02 09:34:11;;;;;;;1.35;1.25;;;;;;;16.42;42.38;97246.59;5114180;28;20024;-69
2022/01/02 09:36:37;;;;;;;1.60;1.50;;;;;;;16.46;43.10;97246.44;5114073;28;20377;-64
2022/01/02 09:39:04;;;;;;;2.88;1.83;;;;;;;16.56;43.32;97239.75;5114024;28;20385;-67
2022/01/02 09:41:31;;;;;;;1.98;1.50;;;;;;;16.52;42.40;97238.19;5114084;28;20031;-63
2022/01/02 09:43:57;;;;;;;1.48;1.38;;;;;;;16.52;43.03;97235.56;5114090;28;20030;-66
2022/01/02 09:46:25;;;;;;;1.50;1.40;;;;;;;16.59;43.51;97228.19;5114012;27;20432;-68
2022/01/02 09:48:53;;;;;;;3.83;1.75;;;;;;;16.51;44.22;97233.84;5114028;28;20086;-66
2022/01/02 09:51:24;;;;;;;1.42;1.30;;;;;;;16.48;43.25;97224.31;5113958;28;20030;-63
2022/01/02 09:53:50;;;;;;;1.42;1.30;;;;;;;16.46;43.21;97225.31;5113760;28;20031;-65
2022/01/02 09:56:17;;;;;;;2.80;1.10;;;;;;;16.44;43.08;97216.63;5113862;28;20022;-64
2022/01/02 09:58:44;;;;;;;1.25;1.15;;;;;;;16.38;41.93;97220.44;5113794;28;20030;-65
2022/01/02 10:01:18;;;;;;;1.27;1.17;;;;;;;16.22;41.93;97221.19;5113703;28;20023;-67
2022/01/02 10:03:50;;;;;;;1.42;1.33;;;;;;;16.19;43.10;97212.59;5113549;28;20035;-68
2022/01/02 10:06:17;;;;;;;1.52;1.17;;;;;;;16.09;42.24;97212.19;5113603;28;20028;-62
2022/01/02 10:08:43;;;;;;;1.90;1.60;;;;;;;15.94;43.40;97217.25;5113607;28;20016;-64
2022/01/02 10:13:49;;;;;;;1.58;1.48;;;;;;;15.76;44.72;97206.69;5113694;28;20028;-67
2022/01/02 10:16:29;;;;;;;1.42;1.30;;;;;;;15.84;43.82;97200.19;5113460;28;20027;-64
2022/01/02 10:18:57;;;;;;;1.80;1.70;;;;;;;15.91;44.32;97202.44;5113443;28;20031;-67
2022/01/02 10:21:33;;;;;;;1.20;1.10;;;;;;;15.98;44.83;97202.19;5113557;28;20432;-67
2022/01/02 10:24:29;;;;;;;1.52;1.42;;;;;;;15.85;45.78;97204.50;5113175;28;20401;-65
2022/01/02 10:27:12;;;;;;;1.58;1.48;;;;;;;15.76;47.20;97204.03;5113436;28;20112;-69
2022/01/02 10:30:03;;;;;;;2.90;1.48;;;;;;;15.84;45.14;97205.44;5113510;28;20500;-62
2022/01/02 10:32:34;;;;;;;2.92;1.58;;;;;;;15.75;46.33;97202.31;5113436;28;20028;-64
2022/01/02 10:35:17;;;;;;;1.52;1.42;;;;;;;15.78;45.93;97198.69;5113412;28;20427;-64
2022/01/02 10:38:04;;;;;;;3.65;1.75;;;;;;;15.84;46.61;97198.41;5113317;28;20083;-64
2022/01/02 10:40:40;;;;;;;2.50;1.70;;;;;;;16.01;46.22;97192.31;5113472;28;20396;-67
2022/01/02 10:43:25;;;;;;;4.40;3.25;;;;;;;16.04;45.32;97192.16;5113237;28;20050;-67
2022/01/02 10:45:51;;;;;;;1.42;1.33;;;;;;;16.14;43.67;97184.63;5113329;28;20043;-65
2022/01/02 10:48:29;;;;;;;2.40;1.50;;;;;;;16.26;45.80;97180.50;5113179;28;20030;-66
2022/01/02 10:51:15;;;;;;;1.85;1.50;;;;;;;16.24;46.23;97177.09;5113291;28;20354;-68
2022/01/02 10:53:56;;;;;;;1.83;1.60;;;;;;;16.19;44.11;97176.47;5113238;28;20043;-64
2022/01/02 10:56:22;;;;;;;;;;;;;;;16.17;43.80;97178.34;5113591;28;20016;-68
2022/01/02 10:58:48;;;;;;;1.52;1.30;;;;;;;16.22;45.15;97172.84;5113056;28;20300;-64
2022/01/02 11:01:14;;;;;;;2.55;1.60;;;;;;;16.23;44.69;97179.81;5113307;28;20020;-64
2022/01/02 11:03:45;;;;;;;1.55;1.35;;;;;;;16.15;45.64;97182.84;5113294;28;20020;-64
2022/01/02 11:06:13;;;;;;;1.20;1.15;;;;;;;15.99;44.87;97177.50;5113256;28;20023;-63
2022/01/02 11:08:45;;;;;;;1.50;1.02;;;;;;;15.82;45.38;97170.38;5112947;28;20050;-63
2022/01/02 11:11:11;;;;;;;1.52;1.33;;;;;;;15.76;44.45;97164.47;5113074;28;20027;-61
2022/01/02 11:13:36;;;;;;;1.35;1.25;;;;;;;15.59;44.28;97164.47;5113174;28;20022;-66
2022/01/02 11:16:05;;;;;;;1.38;1.13;;;;;;;15.53;44.50;97162.94;5113200;28;20057;-63
2022/01/02 11:18:33;;;;;;;1.42;1.33;;;;;;;15.43;45.19;97166.94;5112871;28;20087;-66
2022/01/02 11:21:00;;;;;;;1.40;1.30;;;;;;;15.59;44.44;97164.47;5113037;28;20980;-65
2022/01/02 11:23:58;;;;;;;1.42;1.20;;;;;;;15.74;44.50;97163.69;5112887;28;20034;-63
2022/01/02 11:26:42;;;;;;;3.65;1.13;;;;;;;15.89;44.68;97170.00;5101959;28;20040;-62
2022/01/02 11:29:08;;;;;;;1.80;1.38;;;;;;;15.92;43.78;97167.22;5115769;28;20378;-66
2022/01/02 11:31:40;;;;;;;1.25;1.08;;;;;;;15.90;43.67;97166.41;5116465;28;20024;-68
2022/01/02 11:34:33;;;;;;;1.20;1.10;;;;;;;15.79;44.59;97169.59;5116489;28;20103;-66
2022/01/02 11:37:11;;;;;;;1.40;1.30;;;;;;;15.71;44.69;97158.56;5116539;28;20032;-66
2022/01/02 11:39:56;;;;;;;1.45;1.23;;;;;;;15.70;44.80;97166.56;5116487;28;20027;-66
2022/01/02 11:42:38;;;;;;;3.38;1.10;;;;;;;15.65;44.61;97164.13;5116301;28;20457;-65
2022/01/02 11:45:06;;;;;;;1.50;1.40;;;;;;;15.69;44.59;97167.50;5116298;28;20028;-65
2022/01/02 11:47:40;;;;;;;2.17;1.70;;;;;;;15.37;46.46;97173.38;5116164;27;20028;-62
2022/01/02 11:50:28;;;;;;;2.10;1.90;;;;;;;15.06;47.91;97177.44;5116245;28;20027;-67
2022/01/02 11:53:09;;;;;;;2.17;1.60;;;;;;;14.95;48.74;97175.31;5116415;28;20048;-66
2022/01/02 11:55:36;;;;;;;1.75;1.65;;;;;;;14.88;48.46;97174.75;5115953;28;20439;-64